»·PEaware :: N007GH L88-L52

N007GH :: L88-L52

FLIGHT INFORMATION

Flight Status: Arrived
Operator: Privately registered:
United States
More flights under this callsign
Pilot: Gary H. (21214)
Aircraft: PIPER PA-24 COMMANCHE
(PA24)
More flights by this aircraft type
Origin: L88 New Cuyama
United States
Destination: L52 Oceano Co
United States
More flights between these airports :: More routes between these airports
Route:
File this flight plan on PilotEdge
Remarks:
Altitude:
(Current/Filed)
6,500ft
Speed:
(Current/Filed)
150kts
Departed: 16-May-19 02:09 PM
Arrived: 16-May-19 02:34 PM
Distance/Time
Traveled:
47nm/0:24
Distance/Time
To Go:
Arrived

Flight Plot

Page will automatically refresh every two minutes.


Map Options




Map Legend


Flown Route
Filed Route
Departure Airport
Arrival Airport
Navaid (VOR, NDB)
Fix

Horizontal Profiles

Position Reports

Time Latitude Longitude Heading Altitude Ground
Speed
16-May-19 13:56 34.942637 -119.690258 204 2206ft 0kts
16-May-19 13:57 34.942634 -119.690259 204 2206ft 0kts
16-May-19 13:58 34.942631 -119.690260 204 2206ft 0kts
16-May-19 13:59 34.942628 -119.690262 204 2206ft 0kts
16-May-19 14:00 34.942624 -119.690264 204 2206ft 0kts
16-May-19 14:01 34.942620 -119.690267 204 2206ft 0kts
16-May-19 14:02 34.942616 -119.690269 204 2206ft 0kts
16-May-19 14:03 34.942612 -119.690271 204 2206ft 0kts
16-May-19 14:04 34.942608 -119.690273 204 2206ft 0kts
16-May-19 14:05 34.942604 -119.690275 204 2206ft 0kts
16-May-19 14:06 34.942601 -119.690278 204 2206ft 0kts
16-May-19 14:07 34.942816 -119.691190 199 2206ft 8kts
16-May-19 14:08 34.939268 -119.683940 115 2206ft 43kts
16-May-19 14:09 34.937368 -119.679654 76 2206ft 0kts
16-May-19 14:10 34.937817 -119.680404 294 2206ft 23kts
16-May-19 14:11 34.950532 -119.708158 296 2511ft 134kts
16-May-19 14:12 34.965840 -119.751439 293 3358ft 136kts
16-May-19 14:13 34.977466 -119.784206 294 3964ft 139kts
16-May-19 14:14 34.995567 -119.826827 297 4621ft 143kts
16-May-19 14:15 35.013855 -119.870091 297 5191ft 144kts
16-May-19 14:16 35.032489 -119.913809 297 5687ft 146kts
16-May-19 14:17 35.049326 -119.953638 297 6075ft 147kts
16-May-19 14:18 35.068240 -119.998156 297 6456ft 148kts
16-May-19 14:19 35.086273 -120.040712 297 6772ft 149kts
16-May-19 14:20 35.105397 -120.085923 297 7061ft 150kts
16-May-19 14:21 35.113247 -120.134432 242 6926ft 155kts
16-May-19 14:22 35.091745 -120.180528 240 6683ft 165kts
16-May-19 14:23 35.073151 -120.220734 242 6450ft 160kts
16-May-19 14:24 35.051606 -120.266699 240 6450ft 153kts
16-May-19 14:25 35.032057 -120.312534 243 6451ft 152kts
16-May-19 14:26 35.015036 -120.354509 243 6450ft 152kts
16-May-19 14:27 34.995792 -120.400599 243 6451ft 152kts
16-May-19 14:28 34.986104 -120.452371 287 5527ft 165kts
16-May-19 14:29 35.018876 -120.489989 326 4335ft 165kts
16-May-19 14:30 35.050936 -120.526872 299 3325ft 158kts
16-May-19 14:31 35.071805 -120.567957 307 2430ft 122kts
16-May-19 14:32 35.091938 -120.605432 304 818ft 105kts
16-May-19 14:33 35.103734 -120.626459 144 13ft 9kts
16-May-19 14:34 35.103220 -120.623959 127 17ft 9kts
16-May-19 14:35 35.102312 -120.622524 227 17ft 1kts
16-May-19 14:36 35.102272 -120.622550 214 17ft 0kts
16-May-19 14:37 35.102272 -120.622550 214 17ft 0kts
16-May-19 14:38 35.102272 -120.622550 214 17ft 0kts
16-May-19 14:39 35.102272 -120.622550 214 17ft 0kts
16-May-19 14:40 35.102272 -120.622550 214 17ft 0kts
16-May-19 14:41 35.102272 -120.622550 214 17ft 0kts
16-May-19 14:42 35.102272 -120.622550 214 17ft 0kts
16-May-19 14:43 35.102272 -120.622550 214 17ft 0kts
16-May-19 14:44 35.102272 -120.622550 214 17ft 0kts
16-May-19 14:45 35.102272 -120.622550 214 17ft 0kts
16-May-19 14:46 35.102272 -120.622550 214 17ft 0kts
16-May-19 14:47 35.102272 -120.622550 214 17ft 0kts

Navigation Log

Ident Type
Flight plan parsing failed, navigation log unavailable